Time;durP1;ratioP1;P1;durP2;ratioP2;P2;SDS_P1;SDS_P2;PMS_P1;PMS_P2;Temp;Humidity;BMP_temperature;BMP_pressure;BME280_temperature;BME280_humidity;BME280_pressure;Samples;Min_cycle;Max_cycle;Signal;HPM_P1;HPM_P2
2022/05/25 00:02:05;;;;;;;1.80;1.70;;;14.00;99.90;;;;;;5085561;28;20208;-50
2022/05/25 00:04:32;;;;;;;2.47;2.33;;;14.00;99.90;;;;;;5081674;28;20444;-50
2022/05/25 00:06:59;;;;;;;2.40;2.30;;;14.00;99.90;;;;;;5076270;28;20201;-50
2022/05/25 00:09:27;;;;;;;2.23;2.23;;;14.10;99.90;;;;;;5087338;28;20217;-51
2022/05/25 00:11:54;;;;;;;2.33;2.20;;;14.00;99.90;;;;;;5073572;28;20201;-51
2022/05/25 00:14:22;;;;;;;2.07;1.97;;;14.00;99.90;;;;;;5076721;28;20659;-51
2022/05/25 00:16:50;;;;;;;2.23;2.07;;;14.00;99.90;;;;;;5093319;28;20212;-51
2022/05/25 00:22:01;;;;;;;1.77;1.77;;;14.00;99.90;;;;;;5075049;28;20196;-51
2022/05/25 00:24:28;;;;;;;2.70;2.00;;;14.00;99.90;;;;;;5075113;28;20724;-50
2022/05/25 00:26:55;;;;;;;2.33;2.13;;;14.00;99.90;;;;;;5073149;28;20197;-50
2022/05/25 00:29:24;;;;;;;3.23;1.90;;;14.00;99.90;;;;;;5073242;28;20875;-51
2022/05/25 00:31:53;;;;;;;2.30;2.10;;;14.00;99.90;;;;;;5072045;28;20277;-51
2022/05/25 00:34:20;;;;;;;2.77;2.67;;;14.10;99.90;;;;;;5080858;28;20201;-51
2022/05/25 00:36:47;;;;;;;3.10;2.87;;;14.10;99.90;;;;;;5084756;28;20220;-51
2022/05/25 00:39:14;;;;;;;1.87;1.77;;;14.10;99.90;;;;;;5073443;28;20659;-51
2022/05/25 00:41:41;;;;;;;2.10;1.90;;;14.10;99.90;;;;;;5071083;28;20259;-50
2022/05/25 00:44:09;;;;;;;2.03;1.93;;;14.00;99.90;;;;;;5088245;28;20249;-51
2022/05/25 00:46:39;;;;;;;2.53;1.93;;;14.00;99.90;;;;;;5076900;28;20215;-50
2022/05/25 00:49:11;;;;;;;3.43;1.50;;;13.90;99.90;;;;;;5084453;28;20266;-51
2022/05/25 00:51:41;;;;;;;2.53;1.87;;;14.00;99.90;;;;;;5082336;28;20239;-50
2022/05/25 00:54:13;;;;;;;2.07;2.03;;;14.00;99.90;;;;;;5076490;28;20252;-50
2022/05/25 00:56:43;;;;;;;1.50;1.40;;;14.00;99.90;;;;;;5071917;28;20640;-50
2022/05/25 00:59:15;;;;;;;1.70;1.70;;;13.90;99.90;;;;;;5073043;28;20212;-50
2022/05/25 01:01:44;;;;;;;3.13;1.73;;;13.90;99.90;;;;;;5070473;28;20200;-50
2022/05/25 01:04:12;;;;;;;2.53;2.43;;;13.80;99.90;;;;;;5072208;28;20205;-50
2022/05/25 01:06:57;;;;;;;2.00;1.90;;;13.80;99.90;;;;;;5076612;28;20710;-50
2022/05/25 01:09:34;;;;;;;1.93;1.47;;;13.80;99.90;;;;;;5066028;28;20208;-51
2022/05/25 01:12:18;;;;;;;3.53;2.17;;;13.80;99.90;;;;;;5072163;28;20269;-50
2022/05/25 01:15:05;;;;;;;1.67;1.67;;;13.80;99.90;;;;;;5063027;28;20206;-51
2022/05/25 01:17:47;;;;;;;2.33;1.53;;;13.80;99.90;;;;;;5072355;28;20338;-50
2022/05/25 01:20:27;;;;;;;2.33;2.17;;;13.80;99.90;;;;;;5077224;28;20692;-51
2022/05/25 01:23:29;;;;;;;2.57;2.17;;;13.80;99.90;;;;;;5082291;28;20291;-51
2022/05/25 01:26:21;;;;;;;2.53;2.00;;;13.70;99.90;;;;;;5083321;28;20706;-50
2022/05/25 01:29:03;;;;;;;2.10;1.83;;;13.70;99.90;;;;;;5075158;28;20217;-51
2022/05/25 01:31:38;;;;;;;1.80;1.70;;;13.70;99.90;;;;;;5077023;28;20340;-50
2022/05/25 01:34:11;;;;;;;1.70;1.70;;;13.80;99.90;;;;;;5078448;28;20662;-50
2022/05/25 01:36:43;;;;;;;1.77;1.60;;;13.80;99.90;;;;;;5065819;28;20270;-50
2022/05/25 01:39:14;;;;;;;2.07;1.97;;;13.80;99.90;;;;;;5071988;28;20571;-50
2022/05/25 01:41:52;;;;;;;2.07;1.90;;;13.70;99.90;;;;;;5079182;28;20201;-50
2022/05/25 01:44:23;;;;;;;1.93;1.83;;;13.70;99.90;;;;;;5069735;28;20196;-51
2022/05/25 01:46:57;;;;;;;2.00;1.87;;;13.70;99.90;;;;;;5091897;28;20199;-51
2022/05/25 01:49:28;;;;;;;2.67;1.83;;;13.70;99.90;;;;;;5091897;28;20216;-51
2022/05/25 01:52:01;;;;;;;2.20;2.10;;;13.70;99.90;;;;;;5076904;28;20564;-50
2022/05/25 01:54:33;;;;;;;2.23;2.20;;;13.70;99.90;;;;;;5060977;28;20197;-50
2022/05/25 01:57:06;;;;;;;1.90;1.80;;;13.70;99.90;;;;;;5069725;28;20267;-52
2022/05/25 01:59:33;;;;;;;1.53;1.53;;;13.70;99.90;;;;;;5074414;28;20192;-52
2022/05/25 02:04:50;;;;;;;1.30;1.00;;;13.60;99.90;;;;;;5087320;28;20207;-53
2022/05/25 02:07:28;;;;;;;1.70;1.60;;;13.60;99.90;;;;;;5064111;28;20193;-52
2022/05/25 02:10:08;;;;;;;1.07;1.07;;;13.60;99.90;;;;;;5070963;28;20209;-52
2022/05/25 02:12:48;;;;;;;1.13;1.13;;;13.60;99.90;;;;;;5070246;28;20200;-50
2022/05/25 02:15:27;;;;;;;1.63;1.50;;;13.50;99.90;;;;;;5063270;28;20200;-52
2022/05/25 02:18:03;;;;;;;4.67;1.50;;;13.70;99.90;;;;;;5071912;28;20299;-51
2022/05/25 02:20:38;;;;;;;1.40;1.40;;;13.70;99.90;;;;;;5080434;28;20222;-52
2022/05/25 02:23:12;;;;;;;1.40;1.40;;;13.60;99.90;;;;;;5071001;28;20196;-52
2022/05/25 02:25:46;;;;;;;2.60;1.60;;;13.70;99.90;;;;;;5091458;28;20257;-52
2022/05/25 02:28:16;;;;;;;1.80;1.70;;;13.70;99.90;;;;;;5077907;28;20228;-52
2022/05/25 02:30:50;;;;;;;1.20;1.20;;;13.80;99.90;;;;;;5081455;28;20204;-52
2022/05/25 02:33:24;;;;;;;1.27;1.10;;;13.80;99.90;;;;;;5063751;28;20331;-52
2022/05/25 02:35:52;;;;;;;1.50;1.50;;;13.70;99.90;;;;;;5070293;28;20217;-52
2022/05/25 02:38:19;;;;;;;3.40;3.27;;;13.70;99.90;;;;;;5070987;28;20759;-52
2022/05/25 02:40:46;;;;;;;1.50;1.37;;;13.70;99.90;;;;;;5070573;28;20204;-52
2022/05/25 02:43:13;;;;;;;2.40;2.30;;;13.70;99.90;;;;;;5081861;28;20201;-51
2022/05/25 02:45:40;;;;;;;2.63;2.20;;;13.60;99.90;;;;;;5081739;28;20221;-51
2022/05/25 02:48:08;;;;;;;3.50;1.67;;;13.60;99.90;;;;;;5079411;28;20217;-52
2022/05/25 02:50:36;;;;;;;1.60;1.50;;;13.60;99.90;;;;;;5075430;28;20614;-52
2022/05/25 02:53:04;;;;;;;2.40;1.80;;;13.70;99.90;;;;;;5071597;28;20200;-51
2022/05/25 02:55:32;;;;;;;1.90;1.80;;;13.70;99.90;;;;;;5080161;28;20637;-52
2022/05/25 02:57:59;;;;;;;4.47;1.80;;;13.60;99.90;;;;;;5084556;28;20303;-52
2022/05/25 03:00:26;;;;;;;2.20;2.10;;;13.60;99.90;;;;;;5071986;28;20205;-52
2022/05/25 03:02:56;;;;;;;1.87;1.83;;;13.60;99.90;;;;;;5083945;28;20193;-52
2022/05/25 03:05:24;;;;;;;1.93;1.83;;;13.60;99.90;;;;;;5087752;28;20250;-51
2022/05/25 03:07:52;;;;;;;2.00;1.90;;;13.60;99.90;;;;;;5077379;28;20224;-51
2022/05/25 03:10:19;;;;;;;2.20;1.57;;;13.60;99.90;;;;;;5074951;28;20197;-51
2022/05/25 03:12:47;;;;;;;2.43;2.23;;;13.60;99.90;;;;;;5072303;28;20688;-52
2022/05/25 03:15:14;;;;;;;1.90;1.80;;;13.60;99.90;;;;;;5074694;28;20631;-51
2022/05/25 03:17:41;;;;;;;4.27;2.30;;;13.60;99.90;;;;;;5080715;28;20238;-51
2022/05/25 03:20:10;;;;;;;1.50;1.50;;;13.60;99.90;;;;;;5080376;28;20211;-51
2022/05/25 03:22:39;;;;;;;1.50;1.40;;;13.50;99.90;;;;;;5092660;28;20195;-51
2022/05/25 03:25:09;;;;;;;1.93;1.73;;;13.40;99.90;;;;;;5070765;28;20210;-52
2022/05/25 03:27:36;;;;;;;2.57;1.70;;;13.40;99.90;;;;;;5062006;28;20209;-51
2022/05/25 03:30:04;;;;;;;1.40;1.23;;;13.40;99.90;;;;;;5069769;28;20252;-52
2022/05/25 03:32:31;;;;;;;1.67;1.67;;;13.40;99.90;;;;;;5071812;28;20197;-52
2022/05/25 03:34:59;;;;;;;2.00;1.90;;;13.40;99.90;;;;;;5065235;28;20556;-52
2022/05/25 03:37:27;;;;;;;1.63;1.50;;;13.40;99.90;;;;;;5054546;28;20214;-51
2022/05/25 03:39:54;;;;;;;2.73;1.67;;;13.40;99.90;;;;;;5056709;28;20615;-52
2022/05/25 03:42:23;;;;;;;1.40;1.40;;;13.40;99.90;;;;;;5066656;28;20197;-52
2022/05/25 03:44:50;;;;;;;1.63;1.57;;;13.40;99.90;;;;;;5069585;28;20204;-52
2022/05/25 03:47:18;;;;;;;2.80;2.70;;;13.40;99.90;;;;;;5074168;28;21169;-52
2022/05/25 03:49:46;;;;;;;1.70;1.60;;;13.30;99.90;;;;;;5063209;28;20672;-52
2022/05/25 03:52:13;;;;;;;1.53;1.53;;;13.30;99.90;;;;;;5055301;28;20194;-51
2022/05/25 03:54:40;;;;;;;1.40;1.40;;;13.20;99.90;;;;;;5057441;28;20228;-52
2022/05/25 03:57:08;;;;;;;3.20;1.50;;;13.20;99.90;;;;;;5070392;28;20220;-52
2022/05/25 03:59:36;;;;;;;1.70;1.10;;;13.20;99.90;;;;;;5061726;28;20252;-52
2022/05/25 04:02:03;;;;;;;1.53;1.47;;;13.20;99.90;;;;;;5060366;28;20194;-52
2022/05/25 04:04:30;;;;;;;3.37;1.90;;;13.10;99.90;;;;;;5054148;28;20197;-52
2022/05/25 04:07:01;;;;;;;2.63;1.70;;;13.10;99.90;;;;;;5064851;28;20193;-52
2022/05/25 04:09:28;;;;;;;1.63;1.53;;;13.30;99.90;;;;;;5058223;28;20202;-52
2022/05/25 04:11:58;;;;;;;1.63;1.53;;;13.30;99.90;;;;;;5069760;28;20658;-52
2022/05/25 04:14:26;;;;;;;1.77;1.73;;;13.30;99.90;;;;;;5070086;28;20225;-52
2022/05/25 04:16:57;;;;;;;1.03;1.00;;;13.30;99.90;;;;;;5061165;28;20221;-52
2022/05/25 04:19:24;;;;;;;1.63;1.53;;;13.10;99.90;;;;;;5066208;28;20278;-51
2022/05/25 04:21:54;;;;;;;1.90;1.80;;;13.10;99.90;;;;;;5057775;28;20277;-52
2022/05/25 04:24:21;;;;;;;2.10;1.20;;;13.10;99.90;;;;;;5068350;28;20197;-52
2022/05/25 04:26:48;;;;;;;1.73;1.70;;;13.10;99.90;;;;;;5065609;28;20232;-52
2022/05/25 04:29:15;;;;;;;2.97;1.53;;;13.00;99.90;;;;;;5056714;28;20234;-52
2022/05/25 04:31:42;;;;;;;1.30;1.30;;;13.00;99.90;;;;;;5061851;28;20204;-52
2022/05/25 04:34:13;;;;;;;1.23;1.17;;;13.00;99.90;;;;;;5070151;28;20265;-51
2022/05/25 04:36:41;;;;;;;1.63;1.40;;;13.00;99.90;;;;;;5055872;28;20251;-51
2022/05/25 04:39:08;;;;;;;1.57;1.37;;;13.00;99.90;;;;;;5072585;28;20239;-52
2022/05/25 04:41:36;;;;;;;1.57;1.47;;;13.00;99.90;;;;;;5063457;28;20199;-51
2022/05/25 04:44:04;;;;;;;2.40;2.20;;;13.00;99.90;;;;;;5066737;28;20226;-51
2022/05/25 04:46:31;;;;;;;2.67;1.63;;;13.00;99.90;;;;;;5056849;28;20194;-51
2022/05/25 04:49:00;;;;;;;2.40;1.87;;;13.00;99.90;;;;;;5060524;28;20219;-52
2022/05/25 04:51:29;;;;;;;2.43;1.87;;;13.00;99.90;;;;;;5066300;28;20815;-52
2022/05/25 04:53:56;;;;;;;1.30;1.30;;;13.00;99.90;;;;;;5059237;28;20271;-51
2022/05/25 04:59:21;;;;;;;0.87;0.87;;;13.10;99.90;;;;;;5001121;28;20323;-52
2022/05/25 05:01:48;;;;;;;1.20;1.20;;;13.10;99.90;;;;;;4998669;28;20207;-51
2022/05/25 05:04:16;;;;;;;2.53;1.37;;;13.10;99.90;;;;;;5033502;28;20201;-52
2022/05/25 05:06:44;;;;;;;2.50;1.30;;;13.10;99.90;;;;;;5056509;28;20207;-53
2022/05/25 05:09:11;;;;;;;1.97;1.87;;;13.10;99.90;;;;;;5069589;28;20591;-52
2022/05/25 05:11:38;;;;;;;1.93;1.83;;;13.20;99.90;;;;;;5057283;28;20205;-52
2022/05/25 05:14:05;;;;;;;6.07;3.30;;;13.20;99.90;;;;;;5063119;28;20208;-52
2022/05/25 05:16:32;;;;;;;3.43;3.20;;;13.20;99.90;;;;;;5055386;28;20745;-51
2022/05/25 05:18:59;;;;;;;4.10;3.83;;;13.20;99.90;;;;;;5068720;28;20705;-52
2022/05/25 05:21:26;;;;;;;3.13;2.93;;;13.20;99.90;;;;;;5063151;28;20198;-52
2022/05/25 05:23:55;;;;;;;1.43;1.43;;;13.20;99.90;;;;;;5064879;28;20205;-53
2022/05/25 05:26:22;;;;;;;2.30;2.10;;;13.30;99.90;;;;;;5065648;28;20283;-51
2022/05/25 05:28:53;;;;;;;2.83;2.63;;;13.30;99.90;;;;;;5057355;28;20224;-52
2022/05/25 05:31:21;;;;;;;4.87;4.47;;;13.40;99.90;;;;;;5066087;28;20208;-51
2022/05/25 05:33:47;;;;;;;4.70;4.27;;;13.40;99.90;;;;;;5064198;28;20267;-52
2022/05/25 05:36:17;;;;;;;4.82;4.47;;;13.40;99.90;;;;;;5059484;28;21051;-52
2022/05/25 05:38:49;;;;;;;3.00;2.80;;;13.40;99.90;;;;;;5062101;28;20646;-52
2022/05/25 05:41:20;;;;;;;2.77;2.00;;;13.50;99.90;;;;;;5065158;28;20273;-52
2022/05/25 05:43:47;;;;;;;2.50;2.37;;;13.50;99.90;;;;;;5064460;28;20202;-52
2022/05/25 05:46:15;;;;;;;3.33;1.87;;;13.60;99.90;;;;;;5054342;28;20225;-51
2022/05/25 05:48:43;;;;;;;2.33;2.23;;;13.60;99.90;;;;;;5065982;28;20219;-51
2022/05/25 05:51:11;;;;;;;1.83;1.73;;;13.60;99.90;;;;;;5062579;28;20256;-52
2022/05/25 05:53:40;;;;;;;2.30;1.60;;;13.60;99.90;;;;;;5051468;28;20209;-52
2022/05/25 05:56:08;;;;;;;1.50;1.40;;;13.60;99.90;;;;;;5062757;28;20232;-51
2022/05/25 05:58:36;;;;;;;1.57;1.40;;;13.50;99.90;;;;;;5063010;28;20290;-52
2022/05/25 06:01:04;;;;;;;1.93;1.83;;;13.60;99.90;;;;;;5069899;28;20228;-52
2022/05/25 06:03:31;;;;;;;1.60;1.60;;;13.60;99.90;;;;;;5055014;28;20205;-51
2022/05/25 06:05:58;;;;;;;1.70;1.60;;;13.60;99.90;;;;;;5055145;28;20262;-52
2022/05/25 06:08:26;;;;;;;1.53;1.53;;;13.70;99.90;;;;;;5050923;28;20217;-52
2022/05/25 06:10:53;;;;;;;1.30;1.30;;;13.70;99.90;;;;;;5055564;28;20206;-51
2022/05/25 06:13:20;;;;;;;1.27;1.27;;;13.80;99.90;;;;;;5061234;28;20270;-51
2022/05/25 06:21:20;;;;;;;3.47;2.50;;;13.80;99.90;;;;;;5058095;28;20263;-52
2022/05/25 06:23:48;;;;;;;3.00;2.80;;;13.80;99.90;;;;;;5054944;28;20205;-52
2022/05/25 06:26:15;;;;;;;2.37;2.27;;;13.80;99.90;;;;;;5050667;28;20194;-52
2022/05/25 06:28:43;;;;;;;2.40;2.20;;;13.90;99.90;;;;;;5051147;28;20213;-52
2022/05/25 06:31:11;;;;;;;4.37;2.60;;;13.90;99.90;;;;;;5070194;28;20253;-52
2022/05/25 06:33:39;;;;;;;4.30;2.20;;;13.90;99.90;;;;;;5071350;28;20205;-52
2022/05/25 06:36:14;;;;;;;3.00;2.73;;;13.90;99.90;;;;;;5071397;28;20202;-52
2022/05/25 06:38:41;;;;;;;4.93;2.80;;;13.90;99.90;;;;;;5068950;28;20221;-52
2022/05/25 06:41:08;;;;;;;1.87;1.77;;;14.00;99.90;;;;;;5069868;28;20209;-52
2022/05/25 06:43:35;;;;;;;2.20;2.17;;;14.10;99.90;;;;;;5071007;28;20663;-52
2022/05/25 06:46:02;;;;;;;4.93;2.60;;;14.30;99.90;;;;;;5067866;28;20201;-52
2022/05/25 06:48:31;;;;;;;3.20;2.33;;;14.30;99.90;;;;;;5068329;28;20221;-51
2022/05/25 06:50:58;;;;;;;2.90;2.80;;;14.40;99.90;;;;;;5069886;28;20629;-51
2022/05/25 06:53:25;;;;;;;2.63;2.43;;;14.70;99.90;;;;;;5070997;28;20255;-52
2022/05/25 06:55:52;;;;;;;1.50;1.50;;;14.80;99.90;;;;;;5071473;28;20201;-52
2022/05/25 06:58:19;;;;;;;2.67;2.57;;;14.80;99.90;;;;;;5069238;28;20252;-51
2022/05/25 07:00:46;;;;;;;2.60;2.40;;;14.80;99.90;;;;;;5060322;28;20243;-52
2022/05/25 07:03:13;;;;;;;2.50;2.40;;;14.80;99.90;;;;;;5070232;28;20193;-52
2022/05/25 07:05:41;;;;;;;3.20;3.00;;;14.80;99.90;;;;;;5070875;28;20625;-51
2022/05/25 07:08:08;;;;;;;3.03;2.90;;;14.80;99.90;;;;;;5069902;28;20225;-52
2022/05/25 07:10:35;;;;;;;2.40;2.20;;;14.70;99.90;;;;;;5068682;28;20646;-52
2022/05/25 07:13:02;;;;;;;2.83;2.73;;;14.80;99.90;;;;;;5070390;28;20232;-51
2022/05/25 07:15:29;;;;;;;2.73;2.60;;;14.80;99.90;;;;;;5070802;28;20250;-52
2022/05/25 07:17:56;;;;;;;3.77;3.47;;;14.80;99.90;;;;;;5070691;28;20604;-52
2022/05/25 07:20:23;;;;;;;3.33;3.13;;;14.70;99.90;;;;;;5067849;28;20197;-51
2022/05/25 07:22:51;;;;;;;2.37;2.17;;;14.90;99.90;;;;;;5070063;28;20198;-52
2022/05/25 07:25:18;;;;;;;2.20;2.10;;;15.10;99.90;;;;;;5070631;28;20687;-52
2022/05/25 07:27:45;;;;;;;3.40;2.13;;;15.20;99.90;;;;;;5069691;28;20268;-52
2022/05/25 07:30:13;;;;;;;2.23;2.13;;;15.20;99.90;;;;;;5064287;28;20243;-52
2022/05/25 07:32:41;;;;;;;2.27;2.17;;;15.30;99.90;;;;;;5057774;28;20691;-52
2022/05/25 07:35:10;;;;;;;2.63;2.37;;;15.40;99.90;;;;;;5052012;28;20198;-52
2022/05/25 07:37:39;;;;;;;2.63;2.43;;;15.50;99.90;;;;;;5054034;28;20636;-51
2022/05/25 07:40:12;;;;;;;2.10;2.10;;;15.50;99.90;;;;;;5060887;28;20197;-52
2022/05/25 07:42:40;;;;;;;2.37;1.90;;;15.70;99.90;;;;;;5061883;28;20679;-52
2022/05/25 07:45:09;;;;;;;2.20;2.10;;;15.90;99.90;;;;;;5054024;28;20547;-51
2022/05/25 07:47:36;;;;;;;2.27;2.27;;;16.10;99.90;;;;;;5058858;28;20209;-52
2022/05/25 07:50:05;;;;;;;2.97;2.87;;;16.30;99.90;;;;;;5072434;28;20737;-52
2022/05/25 07:52:34;;;;;;;2.20;2.10;;;16.60;99.90;;;;;;5069260;28;20212;-52
2022/05/25 07:55:02;;;;;;;2.53;2.47;;;16.50;99.90;;;;;;5073264;28;20223;-52
2022/05/25 07:57:30;;;;;;;2.37;2.30;;;16.60;99.90;;;;;;5070825;28;20240;-52
2022/05/25 07:59:57;;;;;;;2.53;2.43;;;16.80;99.90;;;;;;5069352;28;20282;-51
2022/05/25 08:07:59;;;;;;;1.83;1.73;;;16.80;99.90;;;;;;5070371;28;20232;-52
2022/05/25 08:10:27;;;;;;;2.13;1.83;;;17.00;99.90;;;;;;5067231;28;20189;-52
2022/05/25 08:12:58;;;;;;;2.23;2.13;;;17.30;99.90;;;;;;5073546;28;20281;-52
2022/05/25 08:15:27;;;;;;;2.67;2.20;;;17.70;99.90;;;;;;5073622;28;20209;-52
2022/05/25 08:17:54;;;;;;;1.53;1.43;;;17.80;99.90;;;;;;5070814;28;20217;-53
2022/05/25 08:20:22;;;;;;;2.40;2.30;;;18.20;99.90;;;;;;5066591;28;20246;-52
2022/05/25 08:22:50;;;;;;;2.30;2.20;;;18.40;99.90;;;;;;5072053;28;20216;-52
2022/05/25 08:25:19;;;;;;;2.00;1.90;;;18.50;99.90;;;;;;5073119;28;20675;-52
2022/05/25 08:27:46;;;;;;;2.07;1.97;;;18.60;99.90;;;;;;5071981;28;20209;-52
2022/05/25 08:30:17;;;;;;;1.83;1.73;;;18.50;99.90;;;;;;5065339;28;20197;-52
2022/05/25 08:32:44;;;;;;;2.30;2.00;;;18.70;99.90;;;;;;5069485;28;20270;-52
2022/05/25 08:35:11;;;;;;;2.27;2.13;;;18.80;99.90;;;;;;5064775;28;20670;-52
2022/05/25 08:37:38;;;;;;;3.90;2.30;;;19.10;99.90;;;;;;5071294;28;20225;-52
2022/05/25 08:40:07;;;;;;;2.33;2.23;;;19.30;99.90;;;;;;5072066;28;20266;-52
2022/05/25 08:42:44;;;;;;;2.40;2.27;;;19.10;99.90;;;;;;5071174;28;20697;-52
2022/05/25 08:45:12;;;;;;;2.07;2.07;;;19.00;99.90;;;;;;5064679;28;20303;-52
2022/05/25 08:47:45;;;;;;;2.30;2.20;;;19.20;99.90;;;;;;5069646;28;20216;-52
2022/05/25 08:50:12;;;;;;;2.10;1.67;;;19.40;99.90;;;;;;5070786;28;20197;-52
2022/05/25 08:52:40;;;;;;;2.00;2.00;;;20.00;99.90;;;;;;5071025;28;20258;-52
2022/05/25 08:55:10;;;;;;;1.80;1.80;;;20.40;99.90;;;;;;5067804;28;20678;-52
2022/05/25 08:57:41;;;;;;;1.20;1.20;;;20.50;99.90;;;;;;5061123;28;20214;-52
2022/05/25 09:00:10;;;;;;;1.70;1.70;;;20.20;99.90;;;;;;5061607;28;20197;-52
2022/05/25 09:02:46;;;;;;;1.03;1.03;;;20.20;99.90;;;;;;5070049;28;20258;-52
2022/05/25 09:05:19;;;;;;;1.20;1.20;;;20.70;99.90;;;;;;5068971;28;20238;-52
2022/05/25 09:07:56;;;;;;;1.13;1.10;;;21.30;99.90;;;;;;5072214;28;20221;-52
2022/05/25 09:10:24;;;;;;;2.57;1.17;;;21.80;99.90;;;;;;5070792;28;20204;-52
2022/05/25 09:12:55;;;;;;;1.80;1.63;;;21.90;99.90;;;;;;5070562;28;20292;-52
2022/05/25 09:15:26;;;;;;;2.37;1.00;;;22.60;99.90;;;;;;5071289;28;20201;-52
2022/05/25 09:17:59;;;;;;;0.80;0.80;;;22.90;99.90;;;;;;5068164;28;20636;-52
2022/05/25 09:20:31;;;;;;;0.70;0.70;;;22.80;99.90;;;;;;5068380;28;20202;-52
2022/05/25 09:22:59;;;;;;;0.90;0.90;;;22.60;99.90;;;;;;5069666;28;20197;-52
2022/05/25 09:25:26;;;;;;;0.70;0.70;;;22.80;99.90;;;;;;5060841;28;20197;-52
2022/05/25 09:28:00;;;;;;;0.30;0.30;;;23.40;99.90;;;;;;5052217;28;21106;-52
2022/05/25 09:30:29;;;;;;;1.17;0.60;;;23.70;99.90;;;;;;5063761;28;20212;-52
2022/05/25 09:33:02;;;;;;;0.80;0.80;;;23.70;99.90;;;;;;5057907;28;20205;-52
2022/05/25 09:35:33;;;;;;;0.40;0.40;;;24.00;99.90;;;;;;5055707;28;20973;-52
2022/05/25 09:38:04;;;;;;;1.40;0.60;;;24.00;99.90;;;;;;5054412;28;20217;-52
2022/05/25 09:40:34;;;;;;;0.73;0.20;;;23.80;99.90;;;;;;5065131;28;20243;-52
2022/05/25 09:43:04;;;;;;;0.50;0.40;;;23.50;99.90;;;;;;5071354;28;20631;-52
2022/05/25 09:45:41;;;;;;;0.40;0.40;;;23.20;99.90;;;;;;5071763;28;20256;-52
2022/05/25 09:48:16;;;;;;;0.40;0.40;;;23.00;99.90;;;;;;5071294;28;20219;-52
2022/05/25 09:50:45;;;;;;;0.40;0.40;;;22.80;99.90;;;;;;5070799;28;20279;-52
2022/05/25 09:53:17;;;;;;;1.30;0.57;;;22.90;99.90;;;;;;5063331;28;20262;-52
2022/05/25 09:55:46;;;;;;;0.50;0.50;;;22.70;99.90;;;;;;5071630;28;20208;-52
2022/05/25 09:58:23;;;;;;;0.50;0.50;;;22.70;99.90;;;;;;5070875;28;20221;-52
2022/05/25 10:00:57;;;;;;;0.40;0.40;;;22.60;99.90;;;;;;5069910;28;20209;-52
2022/05/25 10:03:36;;;;;;;1.40;0.37;;;22.30;99.90;;;;;;5070143;28;20217;-52
2022/05/25 10:06:18;;;;;;;0.53;0.53;;;22.40;99.90;;;;;;5071284;28;20979;-52
2022/05/25 10:08:45;;;;;;;0.97;0.80;;;23.00;99.90;;;;;;5071073;28;20311;-52
2022/05/25 10:11:27;;;;;;;0.67;0.67;;;23.60;99.90;;;;;;5071146;28;20262;-52
2022/05/25 10:13:56;;;;;;;0.63;0.63;;;24.00;99.90;;;;;;5071293;28;20201;-52
2022/05/25 10:16:25;;;;;;;1.10;1.00;;;24.30;99.90;;;;;;5064088;28;20198;-52
2022/05/25 10:18:56;;;;;;;0.90;0.90;;;24.60;99.90;;;;;;5057696;28;20217;-52
2022/05/25 10:21:28;;;;;;;0.87;0.83;;;25.00;99.90;;;;;;5070575;28;20552;-52
2022/05/25 10:23:57;;;;;;;0.70;0.70;;;24.80;99.90;;;;;;5071137;28;20204;-52
2022/05/25 10:26:33;;;;;;;0.80;0.80;;;24.30;99.90;;;;;;5069405;28;20205;-52
2022/05/25 10:29:07;;;;;;;0.80;0.80;;;23.70;99.90;;;;;;5067617;28;20218;-51
2022/05/25 10:37:39;;;;;;;1.13;0.60;;;23.80;99.90;;;;;;4984464;28;20223;-52
2022/05/25 10:40:08;;;;;;;0.80;0.80;;;24.50;99.90;;;;;;5048273;28;20228;-52
2022/05/25 10:42:49;;;;;;;0.60;0.60;;;25.00;99.90;;;;;;5070449;28;20201;-52
2022/05/25 10:45:19;;;;;;;0.50;0.50;;;23.90;99.90;;;;;;5064446;28;20240;-52
2022/05/25 10:47:55;;;;;;;0.80;0.80;;;24.00;99.90;;;;;;5064918;28;20304;-52
2022/05/25 10:50:30;;;;;;;0.60;0.60;;;24.20;99.90;;;;;;5069270;28;20205;-52
2022/05/25 10:53:03;;;;;;;0.60;0.50;;;24.60;99.90;;;;;;5068911;28;20205;-51
2022/05/25 10:55:42;;;;;;;0.60;0.60;;;24.60;99.90;;;;;;5068638;28;20240;-52
2022/05/25 10:58:26;;;;;;;1.17;0.50;;;24.70;99.90;;;;;;5050129;28;20609;-52
2022/05/25 11:01:20;;;;;;;0.70;0.70;;;24.60;99.90;;;;;;5053172;28;20236;-52
2022/05/25 11:04:20;;;;;;;0.67;0.50;;;24.20;99.90;;;;;;5053385;28;20201;-51
2022/05/25 11:07:00;;;;;;;0.80;0.80;;;22.90;99.90;;;;;;5016850;28;20254;-51
2022/05/25 11:09:45;;;;;;;2.63;0.97;;;23.00;99.90;;;;;;5051680;28;20189;-52
2022/05/25 11:12:21;;;;;;;0.93;0.60;;;23.30;99.90;;;;;;5065267;28;20254;-51
2022/05/25 11:14:59;;;;;;;1.50;0.60;;;23.00;99.90;;;;;;5060024;28;20197;-52
2022/05/25 11:17:37;;;;;;;1.37;0.63;;;23.20;99.90;;;;;;5054194;28;20638;-51
2022/05/25 11:20:16;;;;;;;0.40;0.40;;;23.20;99.90;;;;;;5053964;28;20225;-52
2022/05/25 11:23:10;;;;;;;2.20;0.40;;;23.40;99.90;;;;;;5068086;28;20262;-52
2022/05/25 11:25:57;;;;;;;1.30;0.50;;;23.00;99.90;;;;;;5072184;28;20204;-52
2022/05/25 11:28:35;;;;;;;0.67;0.50;;;22.60;99.90;;;;;;5070800;28;20231;-51
2022/05/25 11:31:14;;;;;;;0.70;0.40;;;21.60;99.90;;;;;;5062231;28;20420;-51
2022/05/25 11:34:00;;;;;;;0.40;0.33;;;21.50;99.90;;;;;;5055965;28;20744;-52
2022/05/25 11:36:54;;;;;;;1.03;0.60;;;20.70;99.90;;;;;;5058574;28;20198;-52
2022/05/25 11:39:32;;;;;;;1.80;0.60;;;20.70;99.90;;;;;;5053854;28;20293;-52
2022/05/25 11:42:07;;;;;;;0.40;0.40;;;20.80;99.90;;;;;;5053692;28;20202;-51
2022/05/25 11:44:57;;;;;;;0.47;0.47;;;21.10;99.90;;;;;;5058567;28;21911;-52
2022/05/25 11:47:46;;;;;;;0.50;0.50;;;20.90;99.90;;;;;;5056931;28;20218;-51
2022/05/25 11:50:30;;;;;;;0.57;0.57;;;21.00;99.90;;;;;;5071442;28;20250;-51
2022/05/25 11:53:15;;;;;;;0.40;0.30;;;21.00;99.90;;;;;;5072592;28;20193;-52
2022/05/25 11:55:54;;;;;;;2.63;0.40;;;21.00;99.90;;;;;;5071745;28;20206;-51
2022/05/25 11:58:33;;;;;;;0.30;0.30;;;21.00;99.90;;;;;;5072376;28;20274;-51
2022/05/25 12:01:09;;;;;;;0.50;0.50;;;20.70;99.90;;;;;;5070399;28;20347;-52
2022/05/25 12:04:12;;;;;;;0.40;0.37;;;20.50;99.90;;;;;;5071599;28;20196;-52
2022/05/25 12:07:00;;;;;;;0.40;0.40;;;20.60;99.90;;;;;;5069738;28;20198;-51
2022/05/25 12:09:38;;;;;;;1.23;0.63;;;20.60;99.90;;;;;;5074362;28;20193;-57
2022/05/25 12:12:18;;;;;;;0.40;0.40;;;20.20;99.90;;;;;;5073863;28;20258;-58
2022/05/25 12:14:57;;;;;;;0.90;0.30;;;19.90;99.90;;;;;;5073996;28;20196;-50
2022/05/25 12:17:31;;;;;;;1.23;0.23;;;19.90;99.90;;;;;;5073143;28;20221;-51
2022/05/25 12:20:01;;;;;;;2.17;1.20;;;19.60;99.90;;;;;;5072223;28;20266;-51
2022/05/25 12:22:32;;;;;;;1.67;0.60;;;19.60;99.90;;;;;;5073370;28;20197;-51
2022/05/25 12:25:05;;;;;;;0.80;0.70;;;19.30;99.90;;;;;;5073752;28;20200;-50
2022/05/25 12:27:40;;;;;;;0.20;0.20;;;19.40;99.90;;;;;;5086346;28;20664;-51
2022/05/25 12:30:11;;;;;;;0.30;0.30;;;19.50;99.90;;;;;;5081729;28;20199;-51
2022/05/25 12:32:40;;;;;;;0.30;0.30;;;19.70;99.90;;;;;;5070430;28;20200;-51
2022/05/25 12:35:11;;;;;;;0.70;0.70;;;20.00;99.90;;;;;;5064342;28;20246;-51
2022/05/25 12:37:43;;;;;;;0.50;0.40;;;20.20;99.90;;;;;;5073032;28;20232;-51
2022/05/25 12:40:11;;;;;;;0.40;0.40;;;20.30;99.90;;;;;;5073067;28;20301;-51
2022/05/25 12:42:43;;;;;;;0.40;0.40;;;20.20;99.90;;;;;;5072984;28;20255;-51
2022/05/25 12:48:40;;;;;;;0.63;0.17;;;20.20;99.90;;;;;;5072234;28;20280;-52
2022/05/25 12:51:10;;;;;;;1.13;0.30;;;20.20;99.90;;;;;;5063803;28;20274;-51
2022/05/25 12:53:39;;;;;;;1.37;0.60;;;20.10;99.90;;;;;;5072847;28;20202;-51
2022/05/25 12:56:15;;;;;;;1.43;0.60;;;19.90;99.90;;;;;;5072709;28;20250;-51
2022/05/25 12:58:52;;;;;;;0.30;0.30;;;19.70;99.90;;;;;;5072703;28;20303;-51
2022/05/25 13:01:41;;;;;;;0.20;0.20;;;19.60;99.90;;;;;;5071821;28;20254;-51
2022/05/25 13:04:43;;;;;;;0.40;0.40;;;19.60;99.90;;;;;;5062730;28;20198;-51
2022/05/25 13:07:42;;;;;;;0.67;0.10;;;19.70;99.90;;;;;;5052346;28;20245;-52
2022/05/25 13:10:57;;;;;;;0.50;0.50;;;19.60;99.90;;;;;;5059228;28;20201;-52
2022/05/25 13:13:40;;;;;;;0.30;0.30;;;19.40;99.90;;;;;;4990533;28;20208;-56
2022/05/25 13:16:29;;;;;;;1.73;0.47;;;19.30;99.90;;;;;;5070091;28;20209;-52
2022/05/25 13:19:14;;;;;;;0.20;0.20;;;19.40;99.90;;;;;;5062148;28;20222;-52
2022/05/25 13:21:42;;;;;;;2.13;0.60;;;19.50;99.90;;;;;;5072126;28;20708;-51
2022/05/25 13:24:44;;;;;;;0.30;0.30;;;19.80;99.90;;;;;;5068570;28;20247;-52
2022/05/25 13:27:28;;;;;;;0.20;0.20;;;20.10;99.90;;;;;;5071851;28;20683;-52
2022/05/25 13:30:04;;;;;;;0.67;0.33;;;20.20;99.90;;;;;;5069715;28;20231;-52
2022/05/25 13:32:37;;;;;;;0.30;0.30;;;20.40;99.90;;;;;;5063341;28;20619;-52
2022/05/25 13:35:31;;;;;;;0.63;0.20;;;20.40;99.90;;;;;;5071066;28;20254;-51
2022/05/25 13:38:01;;;;;;;0.20;0.20;;;20.60;99.90;;;;;;5071801;28;20251;-51
2022/05/25 13:40:32;;;;;;;0.30;0.20;;;20.80;99.90;;;;;;5071629;28;20594;-52
2022/05/25 13:43:00;;;;;;;0.27;0.27;;;20.90;99.90;;;;;;5071513;28;20720;-52